Terminal Aerodrome Forecast
Issued by NWS

Home | Current Version | Previous Version | Graphics & Text | Print | Product List | Glossary On
Versions: 1 2 3 4 5 6 7 8 9 10 11 12 13 14 15 16 17 18 19 20 21 22 23 24 25 26 27 28
814
FTUS43 KLOT 311654 AAB
TAFDPA
TAF AMD
KDPA 311654Z 3117/0112 10010KT P6SM SCT060 BKN120
     FM311800 13008KT P6SM VCTS SCT050CB BKN100
      TEMPO 3118/3122 24015G25KT 4SM TSRA SCT040CB BKN080
     FM312300 09010KT P6SM VCTS SCT040CB BKN080
     FM010200 14006KT P6SM SCT050 BKN080=

USA.gov is the U.S. government's official web portal to all federal, state and local government web resources and services.